Time;durP1;ratioP1;P1;durP2;ratioP2;P2;SDS_P1;SDS_P2;PMS_P1;PMS_P2;Temp;Humidity;BMP_temperature;BMP_pressure;BME280_temperature;BME280_humidity;BME280_pressure;Samples;Min_cycle;Max_cycle;Signal;HPM_P1;HPM_P2
2021/09/11 00:01:49;;;;;;;14.32;12.90;;;18.80;99.90;;;;;;5060611;28;20033;-90
2021/09/11 00:04:15;;;;;;;15.45;13.95;;;18.80;99.90;;;;;;5094392;28;20035;-89
2021/09/11 00:06:40;;;;;;;15.70;14.13;;;18.90;99.90;;;;;;5083315;28;20040;-89
2021/09/11 00:09:06;;;;;;;14.40;13.10;;;18.90;99.90;;;;;;5086888;28;20031;-89
2021/09/11 00:11:32;;;;;;;15.15;13.65;;;19.00;99.90;;;;;;5093217;28;20442;-90
2021/09/11 00:13:58;;;;;;;13.98;12.25;;;18.90;99.90;;;;;;5059177;28;20028;-90
2021/09/11 00:16:23;;;;;;;14.18;12.88;;;18.80;99.90;;;;;;5093937;28;20499;-89
2021/09/11 00:18:49;;;;;;;14.75;13.23;;;18.70;99.90;;;;;;5083407;28;20032;-89
2021/09/11 00:21:15;;;;;;;14.32;12.85;;;18.60;99.90;;;;;;5087132;28;20032;-90
2021/09/11 00:23:41;;;;;;;14.40;12.90;;;18.60;99.90;;;;;;5093209;28;20047;-90
2021/09/11 00:26:07;;;;;;;14.05;12.68;;;18.60;99.90;;;;;;5093110;28;20059;-89
2021/09/11 00:28:33;;;;;;;15.35;13.77;;;18.50;99.90;;;;;;5059204;28;20048;-90
2021/09/11 00:30:59;;;;;;;14.15;12.73;;;18.50;99.90;;;;;;5081278;28;20389;-90
2021/09/11 00:33:26;;;;;;;15.10;13.70;;;18.50;99.90;;;;;;5057487;28;20024;-89
2021/09/11 00:35:52;;;;;;;14.30;12.90;;;18.50;99.90;;;;;;5064625;28;20020;-89
2021/09/11 00:38:17;;;;;;;13.88;12.57;;;18.60;99.90;;;;;;5079229;28;20032;-89
2021/09/11 00:40:43;;;;;;;15.07;13.45;;;18.60;99.90;;;;;;5076571;28;20104;-89
2021/09/11 00:43:08;;;;;;;14.23;12.82;;;18.60;99.90;;;;;;5075639;28;20028;-89
2021/09/11 00:45:34;;;;;;;14.85;13.35;;;18.60;99.90;;;;;;5060680;28;20098;-89
2021/09/11 00:48:00;;;;;;;16.15;13.35;;;18.50;99.90;;;;;;5084783;28;20024;-89
2021/09/11 00:50:25;;;;;;;14.77;13.35;;;18.50;99.90;;;;;;5092191;28;20028;-89
2021/09/11 00:52:51;;;;;;;14.93;13.48;;;18.50;99.90;;;;;;5093006;28;20032;-89
2021/09/11 00:55:17;;;;;;;14.85;13.45;;;18.50;99.90;;;;;;5093288;28;20050;-89
2021/09/11 00:57:45;;;;;;;15.55;13.98;;;18.40;99.90;;;;;;5083173;28;20029;-89
2021/09/11 01:00:12;;;;;;;15.25;13.82;;;18.40;99.90;;;;;;5081284;28;20025;-89
2021/09/11 01:02:38;;;;;;;17.05;13.35;;;18.30;99.90;;;;;;5063247;28;20020;-89
2021/09/11 01:05:06;;;;;;;15.48;14.00;;;18.30;99.90;;;;;;5077215;28;20038;-89
2021/09/11 01:07:31;;;;;;;16.40;14.70;;;18.20;99.90;;;;;;5092884;28;20025;-89
2021/09/11 01:09:59;;;;;;;15.07;13.63;;;18.00;99.90;;;;;;5092744;28;20090;-89
2021/09/11 01:12:27;;;;;;;15.98;14.38;;;18.00;99.90;;;;;;5092373;28;20476;-89
2021/09/11 01:14:53;;;;;;;16.50;14.15;;;18.00;99.90;;;;;;5092919;28;20099;-89
2021/09/11 01:17:19;;;;;;;15.80;14.30;;;18.00;99.90;;;;;;5092305;28;20091;-88
2021/09/11 01:19:45;;;;;;;16.23;14.63;;;18.00;99.90;;;;;;5057512;28;20048;-89
2021/09/11 01:22:14;;;;;;;17.40;15.77;;;18.00;99.90;;;;;;5078920;28;20025;-89
2021/09/11 01:24:59;;;;;;;16.83;15.23;;;17.90;99.90;;;;;;5080407;28;20085;-89
2021/09/11 01:27:26;;;;;;;16.70;14.27;;;17.90;99.90;;;;;;5088061;28;20488;-89
2021/09/11 01:29:56;;;;;;;16.77;15.18;;;18.00;99.90;;;;;;5089718;28;20114;-90
2021/09/11 01:32:23;;;;;;;17.20;15.48;;;17.90;99.90;;;;;;5078439;28;20396;-89
2021/09/11 01:34:50;;;;;;;17.10;14.80;;;17.90;99.90;;;;;;5074905;28;20020;-90
2021/09/11 01:37:20;;;;;;;16.48;14.88;;;17.90;99.90;;;;;;5078387;28;20032;-90
2021/09/11 01:39:49;;;;;;;16.40;14.90;;;17.80;99.90;;;;;;5080888;28;20039;-89
2021/09/11 01:42:20;;;;;;;15.98;14.30;;;17.90;99.90;;;;;;5080349;28;20035;-89
2021/09/11 01:45:14;;;;;;;15.93;14.23;;;17.80;99.90;;;;;;5082399;28;20431;-89
2021/09/11 01:47:41;;;;;;;16.55;14.82;;;17.90;99.90;;;;;;5090805;28;20029;-90
2021/09/11 01:50:08;;;;;;;16.02;14.43;;;17.80;99.90;;;;;;5058955;28;20408;-89
2021/09/11 01:52:34;;;;;;;17.45;14.20;;;17.90;99.90;;;;;;5075805;28;20020;-89
2021/09/11 01:54:59;;;;;;;16.70;14.93;;;17.90;99.90;;;;;;5080110;28;20107;-89
2021/09/11 01:57:25;;;;;;;16.13;14.65;;;17.90;99.90;;;;;;5080430;28;20029;-89
2021/09/11 01:59:53;;;;;;;17.20;15.35;;;17.80;99.90;;;;;;5083346;28;20085;-89
2021/09/11 02:02:19;;;;;;;16.17;14.77;;;17.60;99.90;;;;;;5091483;28;20068;-90
2021/09/11 02:04:45;;;;;;;16.73;15.07;;;17.60;99.90;;;;;;5057535;28;20101;-89
2021/09/11 02:07:10;;;;;;;17.60;15.80;;;17.50;99.90;;;;;;5060970;28;20028;-89
2021/09/11 02:09:36;;;;;;;18.10;16.25;;;17.50;99.90;;;;;;5071235;28;20043;-89
2021/09/11 02:12:02;;;;;;;17.98;16.02;;;17.50;99.90;;;;;;5073472;28;20028;-89
2021/09/11 02:14:28;;;;;;;18.60;16.05;;;17.40;99.90;;;;;;5092014;28;20020;-89
2021/09/11 02:16:53;;;;;;;17.67;15.52;;;17.40;99.90;;;;;;5074993;28;20089;-89
2021/09/11 02:19:19;;;;;;;19.27;15.30;;;17.30;99.90;;;;;;5092120;28;20567;-89
2021/09/11 02:21:45;;;;;;;17.80;16.02;;;17.40;99.90;;;;;;5081476;28;20060;-89
2021/09/11 02:24:11;;;;;;;16.73;15.13;;;17.40;99.90;;;;;;5056256;28;20052;-90
2021/09/11 02:26:36;;;;;;;18.20;16.27;;;17.30;99.90;;;;;;5079865;28;20119;-89
2021/09/11 02:29:03;;;;;;;17.73;15.95;;;17.20;99.90;;;;;;5077326;28;20139;-90
2021/09/11 02:31:29;;;;;;;17.10;15.32;;;17.30;99.90;;;;;;5079721;28;20523;-89
2021/09/11 02:33:55;;;;;;;18.23;16.42;;;17.30;99.90;;;;;;5083698;28;20068;-89
2021/09/11 02:36:20;;;;;;;16.63;15.00;;;17.30;99.90;;;;;;5084107;28;20036;-89
2021/09/11 02:38:46;;;;;;;17.27;15.68;;;17.20;99.90;;;;;;5065677;28;20487;-89
2021/09/11 02:41:12;;;;;;;16.02;14.30;;;17.20;99.90;;;;;;5081966;28;20020;-89
2021/09/11 02:43:38;;;;;;;17.13;14.98;;;17.20;99.90;;;;;;5077281;28;20040;-89
2021/09/11 02:46:03;;;;;;;17.13;15.43;;;17.30;99.90;;;;;;5064365;28;20033;-89
2021/09/11 02:48:29;;;;;;;17.05;15.30;;;17.20;99.90;;;;;;5083409;28;20542;-89
2021/09/11 02:50:54;;;;;;;16.08;14.48;;;17.20;99.90;;;;;;5068242;28;20031;-89
2021/09/11 02:53:20;;;;;;;16.27;14.68;;;17.10;99.90;;;;;;5095332;28;20024;-88
2021/09/11 02:55:46;;;;;;;16.63;14.93;;;17.10;99.90;;;;;;5078750;28;20566;-89
2021/09/11 02:58:11;;;;;;;16.38;14.77;;;17.10;99.90;;;;;;5082027;28;20096;-88
2021/09/11 03:00:37;;;;;;;16.38;14.70;;;17.10;99.90;;;;;;5092920;28;20028;-89
2021/09/11 03:03:03;;;;;;;16.13;13.98;;;17.10;99.90;;;;;;5095033;28;20026;-89
2021/09/11 03:05:29;;;;;;;15.15;13.57;;;17.10;99.90;;;;;;5094683;28;20085;-88
2021/09/11 03:07:54;;;;;;;15.93;14.35;;;17.10;99.90;;;;;;5078354;28;20093;-89
2021/09/11 03:10:20;;;;;;;16.80;14.98;;;17.10;99.90;;;;;;5080703;28;20119;-89
2021/09/11 03:12:46;;;;;;;16.92;14.82;;;17.00;99.90;;;;;;5093260;28;20036;-89
2021/09/11 03:15:12;;;;;;;19.05;14.65;;;17.10;99.90;;;;;;5088734;28;20043;-89
2021/09/11 03:17:38;;;;;;;16.25;14.57;;;17.00;99.90;;;;;;5083626;28;20020;-89
2021/09/11 03:20:04;;;;;;;17.63;14.77;;;17.00;99.90;;;;;;5076283;28;20100;-89
2021/09/11 03:22:30;;;;;;;17.27;15.35;;;17.10;99.90;;;;;;5094924;28;20048;-89
2021/09/11 03:24:56;;;;;;;16.23;14.43;;;17.20;99.90;;;;;;5094655;28;20040;-89
2021/09/11 03:27:21;;;;;;;16.60;14.00;;;17.20;99.90;;;;;;5087046;28;20070;-89
2021/09/11 03:29:47;;;;;;;15.20;13.80;;;17.10;99.90;;;;;;5084802;28;20425;-88
2021/09/11 03:32:13;;;;;;;18.08;15.23;;;17.20;99.90;;;;;;5094112;28;20016;-88
2021/09/11 03:34:38;;;;;;;17.08;15.38;;;17.10;99.90;;;;;;5059994;28;20492;-89
2021/09/11 03:37:04;;;;;;;17.35;15.65;;;17.10;99.90;;;;;;5082235;28;20037;-89
2021/09/11 03:39:30;;;;;;;17.60;15.77;;;17.00;99.90;;;;;;5065072;28;20035;-89
2021/09/11 03:41:55;;;;;;;17.85;16.15;;;17.10;99.90;;;;;;5084523;28;20072;-88
2021/09/11 03:44:21;;;;;;;18.20;16.40;;;17.10;99.90;;;;;;5093567;28;20036;-89
2021/09/11 03:46:47;;;;;;;18.48;16.42;;;17.10;99.90;;;;;;5078047;28;20162;-89
2021/09/11 03:49:13;;;;;;;16.77;14.88;;;17.00;99.90;;;;;;5080291;28;20103;-89
2021/09/11 03:51:39;;;;;;;17.60;15.75;;;17.00;99.90;;;;;;5082395;28;20442;-89
2021/09/11 03:54:04;;;;;;;16.65;15.10;;;16.90;99.90;;;;;;5064459;28;20035;-89
2021/09/11 03:56:30;;;;;;;18.05;16.25;;;17.00;99.90;;;;;;5081818;28;20034;-89
2021/09/11 03:58:55;;;;;;;18.17;16.38;;;17.00;99.90;;;;;;5077439;28;20450;-88
2021/09/11 04:01:21;;;;;;;17.95;16.05;;;17.10;99.90;;;;;;5095003;28;20016;-89
2021/09/11 04:03:47;;;;;;;18.00;16.30;;;17.00;99.90;;;;;;5065390;28;20056;-88
2021/09/11 04:06:13;;;;;;;20.38;16.48;;;17.00;99.90;;;;;;5082050;28;20063;-89
2021/09/11 04:08:39;;;;;;;17.90;16.20;;;17.10;99.90;;;;;;5082772;28;20466;-89
2021/09/11 04:11:04;;;;;;;18.33;16.10;;;17.10;99.90;;;;;;5075245;28;20032;-89
2021/09/11 04:13:30;;;;;;;16.25;14.65;;;17.10;99.90;;;;;;5077638;28;20093;-89
2021/09/11 04:15:56;;;;;;;20.63;17.15;;;17.20;99.90;;;;;;5082211;28;20492;-89
2021/09/11 04:18:22;;;;;;;18.17;15.57;;;17.30;99.90;;;;;;5081620;28;20488;-89
2021/09/11 04:20:48;;;;;;;17.77;15.68;;;17.40;99.90;;;;;;5081434;28;20027;-89
2021/09/11 04:23:14;;;;;;;17.25;15.43;;;17.30;99.90;;;;;;5078738;28;20384;-89
2021/09/11 04:25:40;;;;;;;16.35;14.85;;;17.40;99.90;;;;;;5059236;28;20063;-89
2021/09/11 04:28:05;;;;;;;17.77;15.15;;;17.30;99.90;;;;;;5080883;28;20070;-89
2021/09/11 04:30:31;;;;;;;15.82;14.32;;;17.30;99.90;;;;;;5081498;28;20033;-89
2021/09/11 04:32:57;;;;;;;16.90;14.85;;;17.30;99.90;;;;;;5081825;28;20020;-89
2021/09/11 04:35:22;;;;;;;19.90;15.57;;;17.30;99.90;;;;;;5080252;28;20032;-89
2021/09/11 04:37:48;;;;;;;17.92;16.23;;;17.20;99.90;;;;;;5076553;28;20024;-89
2021/09/11 04:40:14;;;;;;;17.30;15.50;;;17.20;99.90;;;;;;5061229;28;20036;-89
2021/09/11 04:42:40;;;;;;;17.48;15.88;;;17.20;99.90;;;;;;5057402;28;20021;-89
2021/09/11 04:45:06;;;;;;;16.88;15.38;;;17.30;99.90;;;;;;5081307;28;20044;-89
2021/09/11 04:47:32;;;;;;;18.23;16.35;;;17.40;99.90;;;;;;5063036;28;20051;-88
2021/09/11 04:49:57;;;;;;;17.77;15.88;;;17.40;99.90;;;;;;5074331;28;20067;-89
2021/09/11 04:52:23;;;;;;;17.35;15.40;;;17.40;99.90;;;;;;5077452;28;20539;-88
2021/09/11 04:54:49;;;;;;;17.13;15.48;;;17.50;99.90;;;;;;5073997;28;20036;-89
2021/09/11 04:57:14;;;;;;;16.90;15.20;;;17.40;99.90;;;;;;5086380;28;20500;-89
2021/09/11 04:59:40;;;;;;;16.75;15.05;;;17.40;99.90;;;;;;5081030;28;20089;-89
2021/09/11 05:02:06;;;;;;;16.52;14.90;;;17.50;99.90;;;;;;5077324;28;20496;-88
2021/09/11 05:04:32;;;;;;;17.65;15.48;;;17.50;99.90;;;;;;5092759;28;20028;-88
2021/09/11 05:06:58;;;;;;;15.82;14.27;;;17.50;99.90;;;;;;5080867;28;20032;-89
2021/09/11 05:09:24;;;;;;;16.33;14.50;;;17.50;99.90;;;;;;5080823;28;20036;-89
2021/09/11 05:11:50;;;;;;;16.55;14.73;;;17.50;99.90;;;;;;5059599;28;20511;-88
2021/09/11 05:14:16;;;;;;;16.48;14.77;;;17.60;99.90;;;;;;5092220;28;20028;-89
2021/09/11 05:16:42;;;;;;;17.52;15.50;;;17.60;99.90;;;;;;5092466;28;20038;-89
2021/09/11 05:19:07;;;;;;;16.70;14.88;;;17.60;99.90;;;;;;5080234;28;20473;-88
2021/09/11 05:21:33;;;;;;;16.55;14.85;;;17.60;99.90;;;;;;5068867;28;20095;-89
2021/09/11 05:23:59;;;;;;;16.30;14.68;;;17.60;99.90;;;;;;5087665;28;20095;-88
2021/09/11 05:26:24;;;;;;;17.13;13.85;;;17.70;99.90;;;;;;5061684;28;20119;-89
2021/09/11 05:28:50;;;;;;;16.38;14.77;;;17.80;99.90;;;;;;5092051;28;20039;-88
2021/09/11 05:31:16;;;;;;;16.95;15.05;;;17.80;99.90;;;;;;5060267;28;20123;-89
2021/09/11 05:33:42;;;;;;;16.95;15.25;;;17.70;99.90;;;;;;5062160;28;20028;-88
2021/09/11 05:36:07;;;;;;;15.95;14.35;;;17.80;99.90;;;;;;5080305;28;20021;-89
2021/09/11 05:38:33;;;;;;;17.48;15.68;;;17.80;99.90;;;;;;5080156;28;20035;-89
2021/09/11 05:40:59;;;;;;;16.95;15.15;;;17.80;99.90;;;;;;5075712;28;20072;-89
2021/09/11 05:43:25;;;;;;;17.13;15.52;;;17.80;99.90;;;;;;5092410;28;20043;-88
2021/09/11 05:45:50;;;;;;;17.17;15.43;;;17.80;99.90;;;;;;5081961;28;20036;-88
2021/09/11 05:48:16;;;;;;;17.08;15.43;;;17.90;99.90;;;;;;5080217;28;20106;-88
2021/09/11 05:50:42;;;;;;;19.70;16.90;;;17.80;99.90;;;;;;5080132;28;20380;-89
2021/09/11 05:53:08;;;;;;;17.17;15.45;;;18.00;99.90;;;;;;5076575;28;20028;-88
2021/09/11 05:55:34;;;;;;;17.60;15.85;;;18.00;99.90;;;;;;5076055;28;20060;-89
2021/09/11 05:57:59;;;;;;;16.90;15.13;;;18.00;99.90;;;;;;5061248;28;20043;-88
2021/09/11 06:00:25;;;;;;;18.92;16.70;;;18.10;99.90;;;;;;5079944;28;20036;-88
2021/09/11 06:02:51;;;;;;;18.33;16.38;;;18.10;99.90;;;;;;5079975;28;20032;-89
2021/09/11 06:05:16;;;;;;;19.00;17.00;;;18.20;99.90;;;;;;5080454;28;20032;-89
2021/09/11 06:07:42;;;;;;;17.52;15.93;;;18.30;99.90;;;;;;5096217;28;20024;-89
2021/09/11 06:10:09;;;;;;;17.83;15.95;;;18.30;99.90;;;;;;5082906;28;20480;-88
2021/09/11 06:12:35;;;;;;;17.63;15.80;;;18.40;99.90;;;;;;5084148;28;20460;-88
2021/09/11 06:15:00;;;;;;;20.15;16.23;;;18.40;99.90;;;;;;5084208;28;20099;-88
2021/09/11 06:17:26;;;;;;;16.33;14.68;;;18.40;99.90;;;;;;5083019;28;20085;-88
2021/09/11 06:19:51;;;;;;;16.33;14.73;;;18.40;99.90;;;;;;5061191;28;20116;-89
2021/09/11 06:22:17;;;;;;;19.83;15.88;;;18.50;99.90;;;;;;5063028;28;20504;-89
2021/09/11 06:24:42;;;;;;;17.65;15.40;;;18.20;99.90;;;;;;5083637;28;20140;-88
2021/09/11 06:27:08;;;;;;;17.02;15.30;;;18.30;99.90;;;;;;5084249;28;20032;-89
2021/09/11 06:29:34;;;;;;;17.33;15.63;;;18.00;99.90;;;;;;5083377;28;20081;-89
2021/09/11 06:32:00;;;;;;;18.35;14.43;;;18.20;99.90;;;;;;5080604;28;20031;-88
2021/09/11 06:34:26;;;;;;;18.45;15.57;;;18.10;99.90;;;;;;5062225;28;20024;-89
2021/09/11 06:36:52;;;;;;;19.80;15.90;;;18.20;99.90;;;;;;5094559;28;20154;-89
2021/09/11 06:39:18;;;;;;;17.27;15.45;;;18.40;99.90;;;;;;5089266;28;20123;-89
2021/09/11 06:41:44;;;;;;;18.50;15.77;;;18.50;99.90;;;;;;5083301;28;20031;-88
2021/09/11 06:44:10;;;;;;;16.85;14.88;;;18.50;99.90;;;;;;5080100;28;20142;-89
2021/09/11 06:46:36;;;;;;;18.00;16.10;;;18.50;99.90;;;;;;5079165;28;20116;-89
2021/09/11 06:49:02;;;;;;;17.45;15.55;;;18.50;99.90;;;;;;5083772;28;20025;-89
2021/09/11 06:51:28;;;;;;;16.50;14.80;;;18.50;99.90;;;;;;5083142;28;20036;-89
2021/09/11 06:53:53;;;;;;;17.45;15.68;;;18.60;99.90;;;;;;5086051;28;20028;-89
2021/09/11 06:56:19;;;;;;;17.45;15.70;;;18.70;99.90;;;;;;5095286;28;20031;-89
2021/09/11 06:58:45;;;;;;;18.38;16.58;;;18.80;99.90;;;;;;5060519;28;20026;-89
2021/09/11 07:01:10;;;;;;;16.95;15.30;;;18.50;99.90;;;;;;5081791;28;20033;-89
2021/09/11 07:03:36;;;;;;;17.40;15.30;;;18.80;99.90;;;;;;5083753;28;20032;-89
2021/09/11 07:06:06;;;;;;;17.88;16.17;;;19.10;99.90;;;;;;5067022;28;20047;-89
2021/09/11 07:08:32;;;;;;;17.50;15.70;;;19.20;99.90;;;;;;5095235;28;20059;-89
2021/09/11 07:10:59;;;;;;;18.02;16.20;;;19.20;99.90;;;;;;5077982;28;20040;-89
2021/09/11 07:13:24;;;;;;;19.65;15.95;;;19.50;99.90;;;;;;5061776;28;20104;-89
2021/09/11 07:15:50;;;;;;;25.45;16.20;;;19.60;99.90;;;;;;5082950;28;20107;-89
2021/09/11 07:18:16;;;;;;;17.55;15.65;;;19.50;99.90;;;;;;5083020;28;20036;-89
2021/09/11 07:20:41;;;;;;;17.67;15.90;;;19.70;99.90;;;;;;5082009;28;20020;-89
2021/09/11 07:23:07;;;;;;;18.05;16.25;;;19.80;99.90;;;;;;5079630;28;20122;-89
2021/09/11 07:25:33;;;;;;;19.05;17.25;;;19.80;99.90;;;;;;5078116;28;20040;-89
2021/09/11 07:27:58;;;;;;;20.40;18.20;;;20.00;99.90;;;;;;5083014;28;20047;-89
2021/09/11 07:30:24;;;;;;;19.13;17.15;;;20.20;99.90;;;;;;5082895;28;20086;-89
2021/09/11 07:32:50;;;;;;;22.45;19.17;;;20.40;99.90;;;;;;5082567;28;20039;-89
2021/09/11 07:35:16;;;;;;;27.98;19.80;;;20.50;99.90;;;;;;5080272;28;20067;-89
2021/09/11 07:37:41;;;;;;;27.00;20.83;;;20.70;99.90;;;;;;5060127;28;20031;-88
2021/09/11 07:40:08;;;;;;;24.55;20.65;;;20.70;99.90;;;;;;5094223;28;20035;-89
2021/09/11 07:42:33;;;;;;;23.90;21.30;;;20.90;99.90;;;;;;5094528;28;20031;-89
2021/09/11 07:44:59;;;;;;;28.15;24.92;;;21.20;99.90;;;;;;5094280;28;20032;-89
2021/09/11 07:47:25;;;;;;;27.23;24.23;;;21.20;99.90;;;;;;5073310;28;20024;-89
2021/09/11 07:49:50;;;;;;;27.02;24.20;;;21.60;99.90;;;;;;5075690;28;20020;-89
2021/09/11 07:52:16;;;;;;;28.48;25.65;;;21.50;99.90;;;;;;5094205;28;20047;-88
2021/09/11 07:54:42;;;;;;;29.67;26.50;;;21.50;99.90;;;;;;5084220;28;20399;-89
2021/09/11 07:57:08;;;;;;;27.30;24.40;;;21.50;99.90;;;;;;5082709;28;20020;-89
2021/09/11 07:59:35;;;;;;;28.10;25.20;;;21.70;99.90;;;;;;5082276;28;20031;-89
2021/09/11 08:02:01;;;;;;;26.20;23.65;;;22.00;99.90;;;;;;5077653;28;20103;-88
2021/09/11 08:04:26;;;;;;;28.10;25.20;;;22.30;99.90;;;;;;5060310;28;20116;-89
2021/09/11 08:06:52;;;;;;;28.80;25.80;;;22.30;99.90;;;;;;5064705;28;20024;-89
2021/09/11 08:09:18;;;;;;;27.77;25.08;;;22.20;99.90;;;;;;5082409;28;20514;-89
2021/09/11 08:11:43;;;;;;;28.38;24.52;;;22.10;99.90;;;;;;5081563;28;20510;-89
2021/09/11 08:14:10;;;;;;;26.10;23.52;;;22.20;99.90;;;;;;5078384;28;20024;-89
2021/09/11 08:16:36;;;;;;;26.40;23.77;;;22.30;99.90;;;;;;5077309;28;20384;-90
2021/09/11 08:19:02;;;;;;;25.15;22.70;;;22.50;99.90;;;;;;5081397;28;20036;-89
2021/09/11 08:21:27;;;;;;;24.60;22.08;;;22.70;99.90;;;;;;5064144;28;20031;-89
2021/09/11 08:23:53;;;;;;;24.02;21.58;;;22.90;99.90;;;;;;5084302;28;20051;-89
2021/09/11 08:26:19;;;;;;;23.85;21.50;;;23.20;99.90;;;;;;5093016;28;20032;-89
2021/09/11 08:28:44;;;;;;;21.88;19.67;;;23.40;99.90;;;;;;5077010;28;20064;-89
2021/09/11 08:31:13;;;;;;;21.98;19.73;;;23.50;99.90;;;;;;5093503;28;20032;-88
2021/09/11 08:33:39;;;;;;;20.90;18.75;;;24.10;99.90;;;;;;5083781;28;20040;-89
2021/09/11 08:36:05;;;;;;;20.40;18.42;;;24.40;99.90;;;;;;5063673;28;20024;-90
2021/09/11 08:38:34;;;;;;;17.65;15.95;;;24.30;99.90;;;;;;5080972;28;20747;-90
2021/09/11 08:41:03;;;;;;;19.27;14.82;;;24.10;99.90;;;;;;5076918;28;20111;-90
2021/09/11 08:43:29;;;;;;;15.30;13.65;;;24.10;99.90;;;;;;5071411;28;20404;-90
2021/09/11 08:45:55;;;;;;;13.77;12.38;;;24.30;99.90;;;;;;5063673;28;20028;-90
2021/09/11 08:48:21;;;;;;;10.48;9.10;;;24.50;99.90;;;;;;5081209;28;20039;-91
2021/09/11 08:50:46;;;;;;;11.68;10.52;;;24.40;99.90;;;;;;5081772;28;20016;-91
2021/09/11 08:53:12;;;;;;;14.23;11.13;;;24.70;99.90;;;;;;5060650;28;20028;-91
2021/09/11 08:55:39;;;;;;;11.73;10.63;;;24.40;99.90;;;;;;5093534;28;20027;-91
2021/09/11 08:58:07;;;;;;;12.05;10.93;;;24.70;99.90;;;;;;5074950;28;20035;-91
2021/09/11 09:00:47;;;;;;;14.45;13.05;;;25.00;99.90;;;;;;5085510;28;20021;-92
2021/09/11 09:03:35;;;;;;;13.93;12.60;;;24.90;99.90;;;;;;5068786;28;20074;-91
2021/09/11 09:06:19;;;;;;;11.95;9.88;;;25.00;99.90;;;;;;5074823;28;20043;-91
2021/09/11 09:09:06;;;;;;;12.25;11.07;;;25.10;99.90;;;;;;5091224;28;20514;-91
2021/09/11 09:11:33;;;;;;;10.05;9.00;;;24.90;99.90;;;;;;5080893;28;20107;-91
2021/09/11 09:14:05;;;;;;;10.07;8.50;;;25.60;99.90;;;;;;5093698;28;20020;-91
2021/09/11 09:16:34;;;;;;;7.97;7.18;;;25.90;99.90;;;;;;5089310;28;20490;-91
2021/09/11 09:19:23;;;;;;;8.73;6.45;;;26.30;99.90;;;;;;5093470;28;20126;-91
2021/09/11 09:21:51;;;;;;;8.35;6.63;;;26.10;99.90;;;;;;5064006;28;20123;-91
2021/09/11 09:24:38;;;;;;;6.93;6.22;;;26.30;99.90;;;;;;5080644;28;20048;-91
2021/09/11 09:27:06;;;;;;;7.35;6.65;;;26.80;99.90;;;;;;5081045;28;20420;-91
2021/09/11 09:29:39;;;;;;;9.93;5.93;;;27.00;99.90;;;;;;5081088;28;20039;-91
2021/09/11 09:32:05;;;;;;;6.00;5.50;;;26.80;99.90;;;;;;5076422;28;20114;-91
2021/09/11 09:34:33;;;;;;;5.22;4.80;;;27.40;99.90;;;;;;5058653;28;20012;-92
2021/09/11 09:37:00;;;;;;;5.07;4.68;;;28.30;99.90;;;;;;5074868;28;20032;-91
2021/09/11 09:39:27;;;;;;;5.28;4.50;;;28.20;99.90;;;;;;5073259;28;20020;-91
2021/09/11 09:42:00;;;;;;;6.50;3.90;;;31.50;99.90;;;;;;5089863;28;20098;-91
2021/09/11 09:44:25;;;;;;;4.95;3.50;;;36.40;98.00;;;;;;5079809;28;20540;-92
2021/09/11 09:46:52;;;;;;;4.45;3.60;;;39.80;84.50;;;;;;5076452;28;20481;-91
2021/09/11 09:49:20;;;;;;;3.95;3.55;;;41.60;84.00;;;;;;5078212;28;20021;-92
2021/09/11 09:51:47;;;;;;;4.80;3.20;;;43.30;72.80;;;;;;5056945;28;20502;-92
2021/09/11 09:54:14;;;;;;;3.95;3.20;;;41.50;71.90;;;;;;5085688;28;20032;-92
2021/09/11 09:56:41;;;;;;;3.53;2.75;;;41.10;67.70;;;;;;5090819;28;20535;-91
2021/09/11 09:59:07;;;;;;;3.97;2.83;;;34.90;88.70;;;;;;5076741;28;20101;-91
2021/09/11 10:01:35;;;;;;;3.45;2.72;;;31.70;96.60;;;;;;5092427;28;20085;-92
2021/09/11 10:04:13;;;;;;;3.05;2.58;;;29.70;99.90;;;;;;5080112;28;20017;-91
2021/09/11 10:06:40;;;;;;;3.65;2.58;;;28.50;99.90;;;;;;5071073;28;20103;-92
2021/09/11 10:09:07;;;;;;;3.50;2.80;;;27.60;99.90;;;;;;5087736;28;20032;-91
2021/09/11 10:11:42;;;;;;;2.85;2.45;;;27.60;99.90;;;;;;5080485;28;20433;-92
2021/09/11 10:14:13;;;;;;;3.65;2.58;;;27.40;99.90;;;;;;5058617;28;20032;-91
2021/09/11 10:16:41;;;;;;;3.80;3.40;;;27.40;99.90;;;;;;5092538;28;20020;-91
2021/09/11 10:19:18;;;;;;;4.38;2.60;;;27.90;99.90;;;;;;5079506;28;20032;-90
2021/09/11 10:21:46;;;;;;;5.05;2.75;;;28.90;99.90;;;;;;5080584;28;20563;-92
2021/09/11 10:24:24;;;;;;;3.83;3.53;;;28.40;99.90;;;;;;5080081;28;20123;-91
2021/09/11 10:26:53;;;;;;;3.97;3.58;;;29.10;99.90;;;;;;5080316;28;20447;-91
2021/09/11 10:30:03;;;;;;;2.47;2.22;;;31.90;99.90;;;;;;5078146;28;20132;-91
2021/09/11 10:32:36;;;;;;;3.00;2.35;;;35.70;93.20;;;;;;5002037;28;20041;-91
2021/09/11 10:35:18;;;;;;;2.85;1.98;;;39.40;83.10;;;;;;4997756;28;20045;-92
2021/09/11 10:37:48;;;;;;;2.25;2.10;;;42.70;69.40;;;;;;5008786;28;20044;-92
2021/09/11 10:40:22;;;;;;;2.72;2.35;;;43.90;60.20;;;;;;5008125;28;20038;-91
2021/09/11 10:43:06;;;;;;;2.33;2.15;;;44.70;52.70;;;;;;5014359;28;20052;-92
2021/09/11 10:45:43;;;;;;;2.38;2.13;;;45.80;47.10;;;;;;5013242;28;20464;-91
2021/09/11 10:48:30;;;;;;;5.20;2.17;;;39.20;62.20;;;;;;5017642;28;20049;-92
2021/09/11 10:50:56;;;;;;;2.40;1.85;;;35.30;80.30;;;;;;5015363;28;20037;-92
2021/09/11 10:53:22;;;;;;;1.85;1.67;;;36.40;76.50;;;;;;5017189;28;20072;-92
2021/09/11 10:55:49;;;;;;;2.25;2.03;;;36.30;80.40;;;;;;5015586;28;20107;-92
2021/09/11 10:58:23;;;;;;;2.35;2.10;;;39.60;63.40;;;;;;4998584;28;20490;-92
2021/09/11 11:01:00;;;;;;;2.95;2.72;;;41.30;57.10;;;;;;5021594;28;20064;-92
2021/09/11 11:03:27;;;;;;;3.65;3.15;;;34.90;78.70;;;;;;5000859;28;20486;-92
2021/09/11 11:06:03;;;;;;;3.58;3.38;;;32.50;89.60;;;;;;5016817;28;20425;-92
2021/09/11 11:08:30;;;;;;;5.05;3.88;;;30.90;94.20;;;;;;5069284;28;20032;-92
2021/09/11 11:10:57;;;;;;;4.25;3.85;;;34.80;90.00;;;;;;5094910;28;20032;-92
2021/09/11 11:13:23;;;;;;;4.40;3.55;;;38.90;71.50;;;;;;5080094;28;20032;-91
2021/09/11 11:15:56;;;;;;;3.50;3.20;;;41.20;56.00;;;;;;5093042;28;20036;-92
2021/09/11 11:18:22;;;;;;;3.55;3.13;;;42.20;69.80;;;;;;5076642;28;20438;-92
2021/09/11 11:20:48;;;;;;;3.72;3.42;;;42.00;55.30;;;;;;5075987;28;20109;-92
2021/09/11 11:23:14;;;;;;;4.32;3.28;;;43.60;45.40;;;;;;5075626;28;20072;-92
2021/09/11 11:25:40;;;;;;;4.15;3.42;;;44.60;43.40;;;;;;5094797;28;20063;-92
2021/09/11 11:28:09;;;;;;;3.17;2.90;;;44.00;41.60;;;;;;5094892;28;20016;-92
2021/09/11 11:30:37;;;;;;;2.10;2.00;;;40.70;48.50;;;;;;5094782;28;20043;-92
2021/09/11 11:33:04;;;;;;;2.63;2.42;;;34.90;72.60;;;;;;5095022;28;20032;-93
2021/09/11 11:35:30;;;;;;;2.60;2.40;;;32.40;85.10;;;;;;5094670;28;20070;-93
2021/09/11 11:37:57;;;;;;;3.17;1.73;;;30.80;86.00;;;;;;5077311;28;20029;-93
2021/09/11 11:40:23;;;;;;;2.30;2.10;;;30.60;92.30;;;;;;5095426;28;20468;-92
2021/09/11 11:42:49;;;;;;;1.80;1.70;;;37.80;74.70;;;;;;5094362;28;20111;-93
2021/09/11 11:45:16;;;;;;;2.10;1.60;;;42.30;52.40;;;;;;5088804;28;20484;-92
2021/09/11 11:48:08;;;;;;;2.60;1.70;;;44.10;46.90;;;;;;5083167;28;20016;-93
2021/09/11 11:50:39;;;;;;;2.15;1.40;;;44.40;43.80;;;;;;5064382;28;20536;-93
2021/09/11 11:53:11;;;;;;;2.38;1.48;;;43.20;43.90;;;;;;5059569;28;20075;-92
2021/09/11 11:55:40;;;;;;;1.70;1.60;;;43.90;43.60;;;;;;5078259;28;20086;-93
2021/09/11 11:58:15;;;;;;;1.50;1.40;;;45.70;38.20;;;;;;5093582;28;20024;-93
2021/09/11 12:00:52;;;;;;;1.55;1.45;;;46.00;37.20;;;;;;5085028;28;20085;-93
2021/09/11 12:03:43;;;;;;;1.58;1.48;;;46.40;32.20;;;;;;5081968;28;20040;-93
2021/09/11 12:06:29;;;;;;;1.45;1.35;;;44.40;38.70;;;;;;5087662;28;20044;-93
2021/09/11 12:09:01;;;;;;;2.05;1.73;;;44.20;36.00;;;;;;5075352;28;20036;-93
2021/09/11 12:11:27;;;;;;;1.75;1.60;;;44.90;36.20;;;;;;5094121;28;20433;-93
2021/09/11 12:13:57;;;;;;;2.83;1.60;;;45.10;34.90;;;;;;5094154;28;20056;-93
2021/09/11 12:16:23;;;;;;;2.42;1.50;;;44.50;36.80;;;;;;5079535;28;20507;-93
2021/09/11 12:18:49;;;;;;;1.40;1.30;;;44.50;35.90;;;;;;5082102;28;20484;-93
2021/09/11 12:21:17;;;;;;;1.40;1.25;;;44.50;34.00;;;;;;5082051;28;20111;-93
2021/09/11 12:23:52;;;;;;;1.40;1.30;;;44.20;38.50;;;;;;5083161;28;20074;-93
2021/09/11 12:26:29;;;;;;;1.35;1.20;;;45.00;33.40;;;;;;5093732;28;20036;-93
2021/09/11 12:29:05;;;;;;;1.35;1.20;;;45.60;31.20;;;;;;5060096;28;20085;-93
2021/09/11 12:31:33;;;;;;;1.50;1.40;;;45.60;33.40;;;;;;5089695;28;20020;-93
2021/09/11 12:34:05;;;;;;;1.83;1.73;;;44.50;31.50;;;;;;5093838;28;20028;-93
2021/09/11 12:36:35;;;;;;;2.28;1.60;;;43.70;35.80;;;;;;5067919;28;20480;-93